createdAt,value
2023-04-13T00:01:23.391Z,8.45
2023-04-13T00:03:50.202Z,8.49
2023-04-13T00:06:16.941Z,8.53
2023-04-13T00:08:44.316Z,8.45
2023-04-13T00:11:11.665Z,8.54
2023-04-13T00:13:43.209Z,8.54
2023-04-13T00:16:10.775Z,8.49
2023-04-13T00:18:37.498Z,8.38
2023-04-13T00:21:04.306Z,8.36
2023-04-13T00:23:32.146Z,8.35
2023-04-13T00:26:01.875Z,8.35
2023-04-13T00:28:29.827Z,8.37
2023-04-13T00:30:56.574Z,8.47
2023-04-13T00:33:23.303Z,8.28
2023-04-13T00:35:50.025Z,8.28
2023-04-13T00:40:56.072Z,8.18
2023-04-13T00:43:22.675Z,8.25
2023-04-13T00:45:50.046Z,8.19
2023-04-13T00:50:54.554Z,8.31
2023-04-13T00:53:21.282Z,8.21
2023-04-13T00:55:48.769Z,8.20
2023-04-13T00:58:15.413Z,8.18
2023-04-13T01:00:43.629Z,8.21
2023-04-13T01:03:10.540Z,8.19
2023-04-13T01:05:54.955Z,8.04
2023-04-13T01:08:39.882Z,8.15
2023-04-13T01:11:19.725Z,8.17
2023-04-13T01:13:57.228Z,8.17
2023-04-13T01:16:30.878Z,8.14
2023-04-13T01:18:57.647Z,8.12
2023-04-13T01:21:26.456Z,8.10
2023-04-13T01:23:59.437Z,8.07
2023-04-13T01:26:54.861Z,8.14
2023-04-13T01:29:21.995Z,8.04
2023-04-13T01:31:50.048Z,7.94
2023-04-13T01:36:51.110Z,7.94
2023-04-13T01:39:21.664Z,7.94
2023-04-13T01:41:48.250Z,7.87
2023-04-13T01:44:15.016Z,7.86
2023-04-13T01:52:00.412Z,7.69
2023-04-13T01:54:29.255Z,7.67
2023-04-13T01:56:57.535Z,7.71
2023-04-13T02:02:02.982Z,7.62
2023-04-13T02:04:29.709Z,7.60
2023-04-13T02:06:56.559Z,7.66
2023-04-13T02:09:23.175Z,7.63
2023-04-13T02:11:50.294Z,7.66
2023-04-13T02:14:17.067Z,7.73
2023-04-13T02:16:43.833Z,7.74
2023-04-13T02:19:10.924Z,7.72
2023-04-13T02:21:37.534Z,7.66
2023-04-13T02:24:04.385Z,7.78
2023-04-13T02:26:31.084Z,7.70
2023-04-13T02:28:58.138Z,7.64
2023-04-13T02:31:24.913Z,7.77
2023-04-13T02:33:52.377Z,7.75
2023-04-13T02:36:19.445Z,7.77
2023-04-13T02:38:46.247Z,7.66
2023-04-13T02:41:12.931Z,7.72
2023-04-13T02:43:39.600Z,7.62
2023-04-13T02:46:06.637Z,7.66
2023-04-13T02:48:33.341Z,7.66
2023-04-13T02:51:00.031Z,7.72
2023-04-13T02:53:27.434Z,7.68
2023-04-13T02:55:55.111Z,7.66
2023-04-13T02:58:23.712Z,7.60
2023-04-13T03:00:50.826Z,7.71
2023-04-13T03:03:17.550Z,7.71
2023-04-13T03:05:44.289Z,7.63
2023-04-13T03:08:10.945Z,7.47
2023-04-13T03:10:37.858Z,7.68
2023-04-13T03:13:04.530Z,7.65
2023-04-13T03:15:31.888Z,7.66
2023-04-13T03:18:00.300Z,7.67
2023-04-13T03:20:29.410Z,7.60
2023-04-13T03:22:57.337Z,7.67
2023-04-13T03:25:24.079Z,7.65
2023-04-13T03:27:51.646Z,7.65
2023-04-13T03:32:55.938Z,7.64
2023-04-13T03:35:22.620Z,7.55
2023-04-13T03:37:49.336Z,7.52
2023-04-13T03:40:15.960Z,7.49
2023-04-13T03:42:42.664Z,7.50
2023-04-13T03:45:10.784Z,7.57
2023-04-13T03:50:06.429Z,7.44
2023-04-13T03:52:33.049Z,7.45
2023-04-13T03:54:59.924Z,7.47
2023-04-13T03:57:27.776Z,7.44
2023-04-13T03:59:54.439Z,7.55
2023-04-13T04:02:21.993Z,7.51
2023-04-13T04:04:48.785Z,7.50
2023-04-13T04:07:15.532Z,7.57
2023-04-13T04:09:42.551Z,7.71
2023-04-13T04:12:09.237Z,7.72
2023-04-13T04:14:36.423Z,7.82
2023-04-13T04:17:03.393Z,7.74
2023-04-13T04:19:30.078Z,7.74
2023-04-13T04:21:58.181Z,7.74
2023-04-13T04:24:27.860Z,7.81
2023-04-13T04:26:56.290Z,7.76
2023-04-13T04:29:22.946Z,7.71
2023-04-13T04:31:53.798Z,7.73
2023-04-13T04:34:20.984Z,7.76
2023-04-13T04:36:52.074Z,7.80
2023-04-13T04:39:26.864Z,7.80
2023-04-13T04:41:55.112Z,7.75
2023-04-13T04:44:25.577Z,7.69
2023-04-13T04:46:53.002Z,7.75
2023-04-13T04:49:21.931Z,7.79
2023-04-13T04:51:49.342Z,7.74
2023-04-13T04:54:20.431Z,7.73
2023-04-13T04:56:51.382Z,7.75
2023-04-13T04:59:19.868Z,7.76
2023-04-13T05:01:46.957Z,7.75
2023-04-13T05:04:13.968Z,7.75
2023-04-13T05:09:20.958Z,7.80
2023-04-13T05:11:47.684Z,7.81
2023-04-13T05:14:14.408Z,7.87
2023-04-13T05:16:41.093Z,7.87
2023-04-13T05:19:09.465Z,7.83
2023-04-13T05:21:36.955Z,7.83
2023-04-13T05:24:04.581Z,7.78
2023-04-13T05:26:31.589Z,7.82
2023-04-13T05:28:58.766Z,7.83
2023-04-13T05:31:26.064Z,7.86
2023-04-13T05:33:52.798Z,7.85
2023-04-13T05:36:19.426Z,7.75
2023-04-13T05:38:46.121Z,7.80
2023-04-13T05:41:13.286Z,7.86
2023-04-13T05:43:40.081Z,7.89
2023-04-13T05:46:07.959Z,7.93
2023-04-13T05:48:35.029Z,8.33
2023-04-13T05:51:01.862Z,8.16
2023-04-13T05:53:28.549Z,8.05
2023-04-13T05:55:55.526Z,8.05
2023-04-13T05:58:22.353Z,8.16
2023-04-13T06:00:49.122Z,8.13
2023-04-13T06:03:16.425Z,8.11
2023-04-13T06:05:43.538Z,8.01
2023-04-13T06:10:44.677Z,8.03
2023-04-13T06:13:11.443Z,8.10
2023-04-13T06:15:39.137Z,8.06
2023-04-13T06:18:06.144Z,8.05
2023-04-13T06:20:33.771Z,8.02
2023-04-13T06:23:00.438Z,8.03
2023-04-13T06:25:27.374Z,8.22
2023-04-13T06:27:54.717Z,8.24
2023-04-13T06:30:21.921Z,8.19
2023-04-13T06:32:48.596Z,8.24
2023-04-13T06:35:17.627Z,8.23
2023-04-13T06:37:44.340Z,8.24
2023-04-13T06:40:13.003Z,8.23
2023-04-13T06:42:41.356Z,8.28
2023-04-13T06:45:09.375Z,8.27
2023-04-13T06:47:37.450Z,8.38
2023-04-13T06:50:06.858Z,8.38
2023-04-13T06:52:34.073Z,8.40
2023-04-13T06:55:01.491Z,8.34
2023-04-13T06:57:28.641Z,8.42
2023-04-13T06:59:55.800Z,8.34
2023-04-13T07:02:22.733Z,8.31
2023-04-13T07:04:49.923Z,8.26
2023-04-13T07:07:16.844Z,8.28
2023-04-13T07:09:43.625Z,8.26
2023-04-13T07:12:10.284Z,8.33
2023-04-13T07:14:38.804Z,8.35
2023-04-13T07:17:05.998Z,8.34
2023-04-13T07:19:34.032Z,8.36
2023-04-13T07:22:02.339Z,8.36
2023-04-13T07:24:30.170Z,8.46
2023-04-13T07:26:57.848Z,8.35
2023-04-13T07:29:25.169Z,8.44
2023-04-13T07:31:52.283Z,8.41
2023-04-13T07:34:19.483Z,8.46
2023-04-13T07:36:46.318Z,8.48
2023-04-13T07:39:13.005Z,8.56
2023-04-13T07:41:39.778Z,8.56
2023-04-13T07:44:06.629Z,8.66
2023-04-13T07:46:33.976Z,8.71
2023-04-13T07:49:01.057Z,8.76
2023-04-13T07:51:27.936Z,8.92
2023-04-13T07:53:54.960Z,8.92
2023-04-13T07:56:22.795Z,8.90
2023-04-13T07:58:50.665Z,8.94
2023-04-13T08:01:17.676Z,9.00
2023-04-13T08:03:44.658Z,9.11
2023-04-13T08:06:11.889Z,8.99
2023-04-13T08:08:38.788Z,8.98
2023-04-13T08:11:05.720Z,9.00
2023-04-13T08:13:32.377Z,8.98
2023-04-13T08:16:00.588Z,9.15
2023-04-13T08:18:27.961Z,9.21
2023-04-13T08:20:55.298Z,9.19
2023-04-13T08:23:22.683Z,9.29
2023-04-13T08:25:49.433Z,9.09
2023-04-13T08:28:16.227Z,9.22
2023-04-13T08:30:43.113Z,9.31
2023-04-13T08:33:10.397Z,9.42
2023-04-13T08:35:39.531Z,9.41
2023-04-13T08:38:09.514Z,9.42
2023-04-13T08:40:38.808Z,9.54
2023-04-13T08:43:06.816Z,9.56
2023-04-13T08:45:34.622Z,9.55
2023-04-13T08:48:02.233Z,9.42
2023-04-13T08:50:29.307Z,9.27
2023-04-13T08:52:56.105Z,9.38
2023-04-13T08:55:22.894Z,9.49
2023-04-13T08:57:51.746Z,9.48
2023-04-13T09:00:19.601Z,9.52
2023-04-13T09:03:03.710Z,9.51
2023-04-13T09:05:34.541Z,9.45
2023-04-13T09:08:04.423Z,9.49
2023-04-13T09:10:31.277Z,9.41
2023-04-13T09:12:57.983Z,9.40
2023-04-13T09:15:25.262Z,9.50
2023-04-13T09:17:52.440Z,9.60
2023-04-13T09:20:23.675Z,9.63
2023-04-13T09:22:51.796Z,9.70
2023-04-13T09:25:25.696Z,9.70
2023-04-13T09:27:52.775Z,9.78
2023-04-13T09:30:21.636Z,9.92
2023-04-13T09:32:48.381Z,9.87
2023-04-13T09:35:15.009Z,10.05
2023-04-13T09:37:44.598Z,10.28
2023-04-13T09:40:16.736Z,10.43
2023-04-13T09:42:57.744Z,10.48
2023-04-13T09:45:24.666Z,10.44
2023-04-13T09:47:53.119Z,10.26
2023-04-13T09:50:29.126Z,10.16
2023-04-13T09:55:39.613Z,10.17
2023-04-13T09:58:13.886Z,10.20
2023-04-13T10:00:42.383Z,10.20
2023-04-13T10:03:12.097Z,10.23
2023-04-13T10:05:57.145Z,10.22
2023-04-13T10:08:36.870Z,10.06
2023-04-13T10:11:10.651Z,10.05
2023-04-13T10:14:01.262Z,10.05
2023-04-13T10:16:58.907Z,10.04
2023-04-13T10:19:31.118Z,10.12
2023-04-13T10:21:58.980Z,10.11
2023-04-13T10:24:25.902Z,10.06
2023-04-13T10:27:00.397Z,10.03
2023-04-13T10:29:28.662Z,9.93
2023-04-13T10:32:03.890Z,9.94
2023-04-13T10:34:32.995Z,9.98
2023-04-13T10:39:36.430Z,9.94
2023-04-13T10:42:03.863Z,10.02
2023-04-13T10:44:49.675Z,9.95
2023-04-13T10:47:21.669Z,9.96
2023-04-13T10:49:49.792Z,10.07
2023-04-13T10:52:17.126Z,10.02
2023-04-13T10:54:44.785Z,10.11
2023-04-13T10:57:12.335Z,10.12
2023-04-13T11:02:16.811Z,10.05
2023-04-13T11:04:47.549Z,10.05
2023-04-13T11:07:17.144Z,10.04
2023-04-13T11:09:45.842Z,10.02
2023-04-13T11:12:13.313Z,9.95
2023-04-13T11:14:40.094Z,9.96
2023-04-13T11:17:15.205Z,9.94
2023-04-13T11:22:35.792Z,10.18
2023-04-13T11:25:07.260Z,10.20
2023-04-13T11:27:34.104Z,10.30
2023-04-13T11:30:06.680Z,10.29
2023-04-13T11:32:34.601Z,10.42
2023-04-13T11:35:17.542Z,10.37
2023-04-13T11:37:49.681Z,10.42
2023-04-13T11:40:20.531Z,9.94
2023-04-13T11:42:49.140Z,9.66
2023-04-13T11:45:17.327Z,9.38
2023-04-13T11:47:46.337Z,9.33
2023-04-13T11:50:15.453Z,9.04
2023-04-13T11:52:43.701Z,9.09
2023-04-13T11:55:22.159Z,9.05
2023-04-13T11:57:50.573Z,9.13
2023-04-13T12:00:24.659Z,9.20
2023-04-13T12:05:28.089Z,9.20
2023-04-13T12:07:56.406Z,9.06
2023-04-13T12:10:38.962Z,8.99
2023-04-13T12:16:01.654Z,9.06
2023-04-13T12:18:37.337Z,9.23
2023-04-13T12:21:05.900Z,9.20
2023-04-13T12:23:33.102Z,9.24
2023-04-13T12:26:39.520Z,9.32
2023-04-13T12:31:38.431Z,9.78
2023-04-13T12:34:06.693Z,9.94
2023-04-13T12:36:36.354Z,10.04
2023-04-13T12:39:07.182Z,9.85
2023-04-13T12:41:33.841Z,9.77
2023-04-13T12:44:00.687Z,9.79
2023-04-13T12:46:27.367Z,9.86
2023-04-13T12:48:54.329Z,9.86
2023-04-13T12:51:21.377Z,9.80
2023-04-13T12:53:48.185Z,9.77
2023-04-13T12:56:14.864Z,9.43
2023-04-13T12:58:41.603Z,9.58
2023-04-13T13:01:08.890Z,9.74
2023-04-13T13:03:37.156Z,9.68
2023-04-13T13:06:05.792Z,9.99
2023-04-13T13:08:35.069Z,9.94
2023-04-13T13:11:03.610Z,9.79
2023-04-13T13:13:30.219Z,10.06
2023-04-13T13:15:56.901Z,10.09
2023-04-13T13:18:23.511Z,10.59
2023-04-13T13:20:53.651Z,10.61
2023-04-13T13:23:20.472Z,10.54
2023-04-13T13:25:59.280Z,10.60
2023-04-13T13:28:33.928Z,10.57
2023-04-13T13:31:00.624Z,10.42
2023-04-13T13:33:27.362Z,10.37
2023-04-13T13:35:54.010Z,10.21
2023-04-13T13:38:20.681Z,10.36
2023-04-13T13:40:47.635Z,10.27
2023-04-13T13:43:14.421Z,10.13
2023-04-13T13:45:41.389Z,10.18
2023-04-13T13:48:08.136Z,9.98
2023-04-13T13:50:34.898Z,10.01
2023-04-13T13:53:04.233Z,10.05
2023-04-13T13:55:31.897Z,9.89
2023-04-13T13:57:58.867Z,10.01
2023-04-13T14:00:26.097Z,9.94
2023-04-13T14:02:53.389Z,9.89
2023-04-13T14:05:22.122Z,9.61
2023-04-13T14:07:49.059Z,9.81
2023-04-13T14:12:49.575Z,9.61
2023-04-13T14:15:17.371Z,9.65
2023-04-13T14:17:50.228Z,9.76
2023-04-13T14:23:01.202Z,9.71
2023-04-13T14:25:27.866Z,9.83
2023-04-13T14:27:54.484Z,9.92
2023-04-13T14:30:23.677Z,10.05
2023-04-13T14:32:52.188Z,9.98
2023-04-13T14:35:20.278Z,9.69
2023-04-13T14:37:47.781Z,9.80
2023-04-13T14:40:17.268Z,9.96
2023-04-13T14:42:44.123Z,9.71
2023-04-13T14:45:12.579Z,9.69
2023-04-13T14:47:42.746Z,9.61
2023-04-13T14:50:10.005Z,9.65
2023-04-13T14:52:36.853Z,9.61
2023-04-13T14:55:04.556Z,9.48
2023-04-13T14:57:31.623Z,9.53
2023-04-13T14:59:58.247Z,9.47
2023-04-13T15:02:27.687Z,9.40
2023-04-13T15:04:54.772Z,9.40
2023-04-13T15:07:21.964Z,9.21
2023-04-13T15:09:49.149Z,9.19
2023-04-13T15:12:15.900Z,9.15
2023-04-13T15:14:46.779Z,8.94
2023-04-13T15:17:13.690Z,9.03
2023-04-13T15:19:40.354Z,8.92
2023-04-13T15:22:07.056Z,8.84
2023-04-13T15:24:33.751Z,8.86
2023-04-13T15:27:00.516Z,8.77
2023-04-13T15:29:27.431Z,8.66
2023-04-13T15:31:54.339Z,8.53
2023-04-13T15:34:21.038Z,8.65
2023-04-13T15:36:48.002Z,8.52
2023-04-13T15:39:14.679Z,8.44
2023-04-13T15:41:41.298Z,8.51
2023-04-13T15:44:08.391Z,8.46
2023-04-13T15:49:06.428Z,8.66
2023-04-13T15:54:04.470Z,8.71
2023-04-13T15:56:31.123Z,8.71
2023-04-13T15:58:58.151Z,8.59
2023-04-13T16:03:59.025Z,8.65
2023-04-13T16:06:26.222Z,8.65
2023-04-13T16:08:54.447Z,8.67
2023-04-13T16:11:21.109Z,8.64
2023-04-13T16:13:50.064Z,8.82
2023-04-13T16:16:17.857Z,8.58
2023-04-13T16:21:22.880Z,8.62
2023-04-13T16:23:49.476Z,8.50
2023-04-13T16:26:16.227Z,8.68
2023-04-13T16:28:42.843Z,8.46
2023-04-13T16:31:10.065Z,8.26
2023-04-13T16:33:37.382Z,8.31
2023-04-13T16:36:04.306Z,8.49
2023-04-13T16:38:31.497Z,8.55
2023-04-13T16:40:58.308Z,8.60
2023-04-13T16:43:25.220Z,8.50
2023-04-13T16:45:51.906Z,8.47
2023-04-13T16:48:18.621Z,8.30
2023-04-13T16:50:45.259Z,8.46
2023-04-13T16:53:11.988Z,8.31
2023-04-13T16:58:12.064Z,8.63
2023-04-13T17:00:39.411Z,8.57
2023-04-13T17:03:06.160Z,9.52
2023-04-13T17:05:32.842Z,8.97
2023-04-13T17:07:59.563Z,8.91
2023-04-13T17:10:26.444Z,8.90
2023-04-13T17:12:53.117Z,8.80
2023-04-13T17:15:20.326Z,8.47
2023-04-13T17:17:47.333Z,8.23
2023-04-13T17:20:16.803Z,8.25
2023-04-13T17:22:44.265Z,8.51
2023-04-13T17:25:11.064Z,8.43
2023-04-13T17:27:37.677Z,8.33
2023-04-13T17:30:04.942Z,8.25
2023-04-13T17:32:31.905Z,8.04
2023-04-13T17:34:58.769Z,7.85
2023-04-13T17:37:25.699Z,7.70
2023-04-13T17:39:52.349Z,7.89
2023-04-13T17:42:19.115Z,8.02
2023-04-13T17:44:45.920Z,8.06
2023-04-13T17:47:12.599Z,8.28
2023-04-13T17:49:39.309Z,8.20
2023-04-13T17:52:06.276Z,8.32
2023-04-13T17:54:33.250Z,8.29
2023-04-13T17:57:01.943Z,8.21
2023-04-13T17:59:28.947Z,8.19
2023-04-13T18:01:56.402Z,8.24
2023-04-13T18:04:23.320Z,8.26
2023-04-13T18:06:50.168Z,8.31
2023-04-13T18:09:16.896Z,8.27
2023-04-13T18:11:43.562Z,8.18
2023-04-13T18:14:12.457Z,8.21
2023-04-13T18:16:39.374Z,8.24
2023-04-13T18:19:06.405Z,8.10
2023-04-13T18:21:33.155Z,8.04
2023-04-13T18:24:03.334Z,8.05
2023-04-13T18:26:30.304Z,8.08
2023-04-13T18:28:57.131Z,7.90
2023-04-13T18:31:23.939Z,7.97
2023-04-13T18:33:50.686Z,7.83
2023-04-13T18:36:18.404Z,7.75
2023-04-13T18:38:46.291Z,7.79
2023-04-13T18:41:13.370Z,7.91
2023-04-13T18:43:40.097Z,7.74
2023-04-13T18:46:08.094Z,7.68
2023-04-13T18:48:35.443Z,7.67
2023-04-13T18:51:03.858Z,7.67
2023-04-13T18:53:31.175Z,7.65
2023-04-13T18:55:59.070Z,7.63
2023-04-13T18:58:26.580Z,7.74
2023-04-13T19:00:53.265Z,7.81
2023-04-13T19:03:20.335Z,7.69
2023-04-13T19:05:47.416Z,7.74
2023-04-13T19:08:14.299Z,7.43
2023-04-13T19:10:41.945Z,7.42
2023-04-13T19:13:08.807Z,7.31
2023-04-13T19:15:36.143Z,7.32
2023-04-13T19:18:04.574Z,7.24
2023-04-13T19:20:31.618Z,7.17
2023-04-13T19:22:58.448Z,7.20
2023-04-13T19:27:56.590Z,7.28
2023-04-13T19:30:23.259Z,7.24
2023-04-13T19:32:50.328Z,7.37
2023-04-13T19:35:17.611Z,7.40
2023-04-13T19:37:44.366Z,7.24
2023-04-13T19:40:13.965Z,7.27
2023-04-13T19:42:44.898Z,7.42
2023-04-13T19:45:13.243Z,7.37
2023-04-13T19:47:40.750Z,7.30
2023-04-13T19:50:09.688Z,7.42
2023-04-13T19:52:36.565Z,7.39
2023-04-13T19:55:03.415Z,7.51
2023-04-13T19:57:30.777Z,7.49
2023-04-13T19:59:57.959Z,7.61
2023-04-13T20:02:24.955Z,7.37
2023-04-13T20:04:52.403Z,7.53
2023-04-13T20:07:19.229Z,7.45
2023-04-13T20:12:17.894Z,7.37
2023-04-13T20:14:46.521Z,7.46
2023-04-13T20:17:16.575Z,7.47
2023-04-13T20:19:43.274Z,7.50
2023-04-13T20:22:11.177Z,7.17
2023-04-13T20:24:37.828Z,7.28
2023-04-13T20:27:05.278Z,7.21
2023-04-13T20:29:31.938Z,7.26
2023-04-13T20:31:58.655Z,7.41
2023-04-13T20:34:30.533Z,7.24
2023-04-13T20:36:59.094Z,7.36
2023-04-13T20:39:30.141Z,7.31
2023-04-13T20:47:02.270Z,7.39
2023-04-13T20:49:31.870Z,7.30
2023-04-13T20:51:58.595Z,7.41
2023-04-13T20:54:25.296Z,7.16
2023-04-13T20:56:52.245Z,7.20
2023-04-13T20:59:19.550Z,7.18
2023-04-13T21:04:17.655Z,7.24
2023-04-13T21:06:45.161Z,7.26
2023-04-13T21:09:11.886Z,7.32
2023-04-13T21:11:38.637Z,7.28
2023-04-13T21:14:05.532Z,7.35
2023-04-13T21:16:33.207Z,7.31
2023-04-13T21:19:00.031Z,7.37
2023-04-13T21:21:27.936Z,7.32
2023-04-13T21:23:55.037Z,7.46
2023-04-13T21:26:21.914Z,7.28
2023-04-13T21:28:48.640Z,7.19
2023-04-13T21:31:15.778Z,7.25
2023-04-13T21:33:43.136Z,7.34
2023-04-13T21:38:48.601Z,7.15
2023-04-13T21:41:16.552Z,7.00
2023-04-13T21:43:43.363Z,6.83
2023-04-13T21:46:14.076Z,6.79
2023-04-13T21:48:41.066Z,6.90
2023-04-13T21:51:09.542Z,6.77
2023-04-13T21:53:37.356Z,6.96
2023-04-13T21:56:04.887Z,6.96
2023-04-13T21:58:42.425Z,7.04
2023-04-13T22:01:09.578Z,7.07
2023-04-13T22:03:45.640Z,7.05
2023-04-13T22:06:13.096Z,6.87
2023-04-13T22:08:40.696Z,6.86
2023-04-13T22:11:07.407Z,6.76
2023-04-13T22:16:06.022Z,6.97
2023-04-13T22:18:32.886Z,6.99
2023-04-13T22:21:00.211Z,7.07
2023-04-13T22:23:27.124Z,7.08
2023-04-13T22:25:59.061Z,7.08
2023-04-13T22:30:58.713Z,6.97
2023-04-13T22:33:25.644Z,7.02
2023-04-13T22:35:52.401Z,6.93
2023-04-13T22:38:19.764Z,6.98
2023-04-13T22:40:46.491Z,6.91
2023-04-13T22:43:13.458Z,6.96
2023-04-13T22:45:40.186Z,7.15
2023-04-13T22:48:07.001Z,6.91
2023-04-13T22:50:33.754Z,6.98
2023-04-13T22:53:00.469Z,7.10
2023-04-13T22:58:05.505Z,7.07
2023-04-13T23:00:32.139Z,7.04
2023-04-13T23:02:58.955Z,6.76
2023-04-13T23:05:25.711Z,6.59
2023-04-13T23:07:52.486Z,6.83
2023-04-13T23:10:19.393Z,6.72
2023-04-13T23:12:46.983Z,6.59
2023-04-13T23:15:14.591Z,6.69
2023-04-13T23:17:41.546Z,6.59
2023-04-13T23:20:08.741Z,6.57
2023-04-13T23:22:35.533Z,6.77
2023-04-13T23:25:02.353Z,6.62
2023-04-13T23:27:29.081Z,6.73
2023-04-13T23:29:55.793Z,6.76
2023-04-13T23:32:22.586Z,6.86
2023-04-13T23:34:51.121Z,6.91
2023-04-13T23:37:17.889Z,6.94
2023-04-13T23:39:44.482Z,6.97
2023-04-13T23:44:49.121Z,6.85
2023-04-13T23:47:15.908Z,6.83
2023-04-13T23:49:42.575Z,6.73
2023-04-13T23:52:10.108Z,6.66
2023-04-13T23:54:36.965Z,6.61
2023-04-13T23:57:03.596Z,6.74
2023-04-13T23:59:30.293Z,6.59
